createdAt,value
2019-01-30T00:00:31.865Z,20.40
2019-01-30T00:01:31.866Z,21.40
2019-01-30T00:02:31.835Z,24.10
2019-01-30T00:03:31.833Z,20.80
2019-01-30T00:04:31.809Z,21.50
2019-01-30T00:05:31.855Z,24.70
2019-01-30T00:06:31.809Z,20.70
2019-01-30T00:07:31.785Z,24.80
2019-01-30T00:08:31.779Z,21.40
2019-01-30T00:09:31.769Z,19.10
2019-01-30T00:10:31.752Z,17.90
2019-01-30T00:11:31.783Z,20.50
2019-01-30T00:12:31.753Z,21.50
2019-01-30T00:13:39.617Z,21.70
2019-01-30T00:14:31.718Z,23.80
2019-01-30T00:15:31.707Z,21.10
2019-01-30T00:16:31.691Z,18.00
2019-01-30T00:17:32.149Z,22.00
2019-01-30T00:18:31.671Z,19.50
2019-01-30T00:19:31.656Z,20.40
2019-01-30T00:20:31.646Z,21.40
2019-01-30T00:21:31.643Z,21.30
2019-01-30T00:22:31.647Z,22.20
2019-01-30T00:23:31.620Z,19.70
2019-01-30T00:24:31.604Z,20.90
2019-01-30T00:25:31.592Z,22.40
2019-01-30T00:26:31.604Z,23.40
2019-01-30T00:27:31.600Z,19.70
2019-01-30T00:28:31.575Z,23.60
2019-01-30T00:29:31.660Z,23.40
2019-01-30T00:30:31.546Z,25.40
2019-01-30T00:31:31.573Z,25.30
2019-01-30T00:32:31.555Z,21.30
2019-01-30T00:33:31.523Z,23.20
2019-01-30T00:34:31.497Z,22.10
2019-01-30T00:35:31.493Z,21.40
2019-01-30T00:36:31.481Z,21.60
2019-01-30T00:37:31.997Z,19.50
2019-01-30T00:38:31.461Z,22.00
2019-01-30T00:39:31.458Z,20.10
2019-01-30T00:40:31.439Z,20.60
2019-01-30T00:41:31.473Z,19.60
2019-01-30T00:42:31.831Z,23.10
2019-01-30T00:43:31.403Z,21.90
2019-01-30T00:44:31.397Z,23.20
2019-01-30T00:45:31.413Z,23.40
2019-01-30T00:46:31.399Z,21.00
2019-01-30T00:47:31.417Z,26.90
2019-01-30T00:48:31.361Z,48.10
2019-01-30T00:49:31.447Z,25.10
2019-01-30T00:50:31.472Z,37.60
2019-01-30T00:51:31.343Z,34.00
2019-01-30T00:52:31.366Z,27.40
2019-01-30T00:53:31.360Z,23.20
2019-01-30T00:54:32.158Z,21.20
2019-01-30T00:55:31.999Z,20.60
2019-01-30T00:56:31.287Z,23.50
2019-01-30T00:57:31.277Z,21.40
2019-01-30T00:58:31.286Z,21.60
2019-01-30T00:59:31.258Z,20.20
2019-01-30T01:00:31.240Z,19.00
2019-01-30T01:01:31.223Z,19.50
2019-01-30T01:02:31.226Z,22.70
2019-01-30T01:03:31.229Z,21.70
2019-01-30T01:04:31.547Z,22.60
2019-01-30T01:05:31.194Z,22.10
2019-01-30T01:06:31.176Z,21.70
2019-01-30T01:07:31.165Z,21.80
2019-01-30T01:08:31.218Z,21.90
2019-01-30T01:09:31.138Z,22.20
2019-01-30T01:10:31.400Z,23.10
2019-01-30T01:11:31.295Z,23.80
2019-01-30T01:12:31.460Z,20.80
2019-01-30T01:13:31.242Z,21.50
2019-01-30T01:14:31.122Z,21.70
2019-01-30T01:15:31.182Z,21.20
2019-01-30T01:16:31.216Z,21.80
2019-01-30T01:18:32.144Z,21.20
2019-01-30T01:19:31.046Z,22.20
2019-01-30T01:20:31.040Z,23.90
2019-01-30T01:21:31.269Z,22.30
2019-01-30T01:22:31.012Z,25.00
2019-01-30T01:23:31.476Z,21.00
2019-01-30T01:24:31.011Z,22.00
2019-01-30T01:25:30.990Z,20.60
2019-01-30T01:26:30.975Z,24.40
2019-01-30T01:27:30.994Z,25.50
2019-01-30T01:28:30.954Z,24.30
2019-01-30T01:29:31.113Z,24.60
2019-01-30T01:30:31.003Z,29.40
2019-01-30T01:31:30.980Z,24.10
2019-01-30T01:32:30.956Z,27.80
2019-01-30T01:33:30.905Z,23.00
2019-01-30T01:34:31.083Z,25.50
2019-01-30T01:35:30.952Z,21.70
2019-01-30T01:36:30.950Z,24.40
2019-01-30T01:37:30.858Z,25.10
2019-01-30T01:38:30.856Z,27.30
2019-01-30T01:39:31.066Z,30.60
2019-01-30T01:40:30.936Z,33.80
2019-01-30T01:41:31.158Z,43.80
2019-01-30T01:42:30.797Z,44.80
2019-01-30T01:43:30.901Z,25.90
2019-01-30T01:44:30.814Z,23.90
2019-01-30T01:46:31.856Z,26.40
2019-01-30T01:47:30.763Z,23.00
2019-01-30T01:48:30.749Z,23.40
2019-01-30T01:49:30.783Z,25.70
2019-01-30T01:50:30.729Z,22.60
2019-01-30T01:51:30.714Z,24.10
2019-01-30T01:52:30.826Z,23.50
2019-01-30T01:53:30.684Z,27.20
2019-01-30T01:54:30.712Z,23.80
2019-01-30T01:55:30.679Z,22.90
2019-01-30T01:56:30.675Z,24.10
2019-01-30T01:57:30.636Z,22.20
2019-01-30T01:58:30.626Z,28.50
2019-01-30T01:59:30.638Z,23.50
2019-01-30T02:00:35.506Z,27.00
2019-01-30T02:01:31.640Z,24.10
2019-01-30T02:02:30.600Z,26.50
2019-01-30T02:03:30.592Z,26.00
2019-01-30T02:04:30.838Z,24.30
2019-01-30T02:05:30.694Z,24.30
2019-01-30T02:06:30.586Z,22.70
2019-01-30T02:07:30.614Z,21.70
2019-01-30T02:08:30.677Z,23.00
2019-01-30T02:09:30.554Z,24.50
2019-01-30T02:10:30.498Z,22.90
2019-01-30T02:11:30.492Z,22.20
2019-01-30T02:12:30.486Z,22.50
2019-01-30T02:13:30.594Z,23.70
2019-01-30T02:14:30.481Z,24.40
2019-01-30T02:15:30.516Z,21.70
2019-01-30T02:16:30.440Z,22.50
2019-01-30T02:17:30.436Z,27.20
2019-01-30T02:18:30.446Z,24.20
2019-01-30T02:19:30.429Z,23.50
2019-01-30T02:20:30.426Z,23.20
2019-01-30T02:21:30.404Z,26.70
2019-01-30T02:22:30.383Z,25.00
2019-01-30T02:23:30.388Z,22.50
2019-01-30T02:24:30.360Z,27.00
2019-01-30T02:25:30.460Z,23.30
2019-01-30T02:26:30.401Z,21.50
2019-01-30T02:27:30.326Z,19.20
2019-01-30T02:28:30.320Z,22.10
2019-01-30T02:29:30.310Z,21.30
2019-01-30T02:30:30.318Z,22.60
2019-01-30T02:31:30.298Z,20.20
2019-01-30T02:32:30.297Z,21.00
2019-01-30T02:33:30.312Z,22.70
2019-01-30T02:34:30.257Z,24.90
2019-01-30T02:35:30.282Z,22.30
2019-01-30T02:36:30.239Z,24.20
2019-01-30T02:37:30.238Z,23.90
2019-01-30T02:38:30.238Z,21.70
2019-01-30T02:39:30.206Z,23.30
2019-01-30T02:40:30.202Z,21.70
2019-01-30T02:41:30.182Z,24.60
2019-01-30T02:42:30.168Z,23.00
2019-01-30T02:43:30.168Z,22.90
2019-01-30T02:44:30.156Z,25.90
2019-01-30T02:45:30.158Z,21.70
2019-01-30T02:46:30.124Z,21.00
2019-01-30T02:47:30.121Z,22.80
2019-01-30T02:48:30.104Z,25.40
2019-01-30T02:49:30.124Z,22.80
2019-01-30T02:50:30.128Z,23.10
2019-01-30T02:51:30.084Z,24.40
2019-01-30T02:52:30.075Z,20.50
2019-01-30T02:53:30.068Z,22.70
2019-01-30T02:54:30.048Z,24.00
2019-01-30T02:55:30.090Z,23.30
2019-01-30T02:56:30.027Z,22.10
2019-01-30T02:57:30.016Z,23.90
2019-01-30T02:58:30.004Z,20.80
2019-01-30T02:59:30.010Z,22.30
2019-01-30T03:00:29.997Z,21.80
2019-01-30T03:01:30.013Z,22.00
2019-01-30T03:02:29.979Z,24.10
2019-01-30T03:03:29.950Z,23.70
2019-01-30T03:04:29.944Z,23.80
2019-01-30T03:05:29.928Z,19.60
2019-01-30T03:06:29.954Z,24.10
2019-01-30T03:07:29.926Z,26.60
2019-01-30T03:08:29.911Z,23.20
2019-01-30T03:09:29.881Z,29.20
2019-01-30T03:10:29.879Z,27.60
2019-01-30T03:11:29.898Z,30.80
2019-01-30T03:12:29.866Z,26.20
2019-01-30T03:13:29.876Z,24.70
2019-01-30T03:14:29.849Z,25.10
2019-01-30T03:15:29.822Z,26.30
2019-01-30T03:16:29.859Z,25.90
2019-01-30T03:17:29.801Z,25.00
2019-01-30T03:18:29.813Z,27.00
2019-01-30T03:19:29.818Z,26.50
2019-01-30T03:20:29.790Z,22.80
2019-01-30T03:21:29.796Z,24.50
2019-01-30T03:22:29.763Z,25.10
2019-01-30T03:23:29.739Z,24.90
2019-01-30T03:24:29.753Z,26.00
2019-01-30T03:25:29.749Z,23.60
2019-01-30T03:26:29.756Z,22.70
2019-01-30T03:27:29.698Z,23.40
2019-01-30T03:28:29.699Z,24.30
2019-01-30T03:29:29.692Z,22.80
2019-01-30T03:30:29.703Z,23.60
2019-01-30T03:31:29.673Z,21.20
2019-01-30T03:32:29.707Z,22.20
2019-01-30T03:33:29.639Z,21.90
2019-01-30T03:34:29.646Z,23.00
2019-01-30T03:35:29.620Z,23.50
2019-01-30T03:36:29.620Z,21.00
2019-01-30T03:37:29.635Z,21.60
2019-01-30T03:38:29.588Z,21.60
2019-01-30T03:39:29.582Z,21.40
2019-01-30T03:40:29.588Z,20.10
2019-01-30T03:41:29.694Z,21.50
2019-01-30T03:42:29.574Z,21.30
2019-01-30T03:43:29.576Z,21.50
2019-01-30T03:44:29.534Z,23.80
2019-01-30T03:45:29.517Z,20.70
2019-01-30T03:46:29.525Z,19.10
2019-01-30T03:47:29.535Z,17.00
2019-01-30T03:48:29.502Z,20.90
2019-01-30T03:49:29.474Z,20.50
2019-01-30T03:50:29.475Z,20.40
2019-01-30T03:51:29.461Z,18.90
2019-01-30T03:52:29.566Z,18.70
2019-01-30T03:53:29.444Z,20.90
2019-01-30T03:54:29.438Z,21.80
2019-01-30T03:55:29.417Z,19.70
2019-01-30T03:56:29.404Z,21.00
2019-01-30T03:57:29.430Z,18.10
2019-01-30T03:58:29.383Z,19.00
2019-01-30T03:59:29.419Z,21.00
2019-01-30T04:00:29.376Z,18.00
2019-01-30T04:01:29.394Z,20.00
2019-01-30T04:02:29.362Z,16.20
2019-01-30T04:03:29.448Z,19.70
2019-01-30T04:04:29.315Z,18.50
2019-01-30T04:05:29.316Z,19.10
2019-01-30T04:06:29.315Z,16.10
2019-01-30T04:07:29.323Z,19.50
2019-01-30T04:08:29.278Z,17.80
2019-01-30T04:09:29.294Z,17.50
2019-01-30T04:11:30.316Z,21.50
2019-01-30T04:12:50.268Z,22.80
2019-01-30T04:13:50.226Z,33.40
2019-01-30T04:14:50.218Z,30.80
2019-01-30T04:15:29.224Z,28.60
2019-01-30T04:16:29.192Z,32.80
2019-01-30T04:18:30.273Z,21.40
2019-01-30T04:19:29.256Z,17.80
2019-01-30T04:20:29.306Z,16.00
2019-01-30T04:24:28.998Z,14.70
2019-01-30T04:25:07.982Z,18.50
2019-01-30T04:26:07.982Z,19.60
2019-01-30T04:27:07.968Z,16.20
2019-01-30T04:28:07.989Z,16.60
2019-01-30T04:29:07.976Z,19.20
2019-01-30T04:30:07.968Z,20.10
2019-01-30T04:31:07.926Z,18.00
2019-01-30T04:32:07.962Z,19.10
2019-01-30T04:33:07.934Z,19.30
2019-01-30T04:34:07.905Z,13.90
2019-01-30T04:35:07.880Z,18.20
2019-01-30T04:36:07.873Z,20.20
2019-01-30T04:37:07.865Z,18.50
2019-01-30T04:38:07.853Z,18.70
2019-01-30T04:39:07.905Z,17.60
2019-01-30T04:40:07.843Z,17.50
2019-01-30T04:41:07.818Z,18.00
2019-01-30T04:42:07.809Z,18.50
2019-01-30T04:43:07.801Z,18.30
2019-01-30T04:44:07.842Z,17.00
2019-01-30T04:45:07.780Z,18.20
2019-01-30T04:46:07.767Z,19.40
2019-01-30T04:47:07.762Z,19.60
2019-01-30T04:48:07.763Z,16.50
2019-01-30T04:49:07.770Z,16.60
2019-01-30T04:50:07.735Z,18.40
2019-01-30T04:51:07.722Z,19.80
2019-01-30T04:52:07.734Z,19.30
2019-01-30T04:53:07.692Z,20.20
2019-01-30T04:54:07.703Z,19.00
2019-01-30T04:55:07.667Z,18.20
2019-01-30T04:56:07.667Z,18.80
2019-01-30T04:57:07.669Z,17.70
2019-01-30T04:58:07.649Z,19.40
2019-01-30T04:59:07.692Z,21.40
2019-01-30T05:00:07.624Z,16.90
2019-01-30T05:01:07.615Z,20.70
2019-01-30T05:02:07.624Z,21.20
2019-01-30T05:03:07.600Z,16.70
2019-01-30T05:04:07.620Z,16.50
2019-01-30T05:05:07.572Z,26.80
2019-01-30T05:06:07.584Z,18.00
2019-01-30T05:07:07.545Z,21.50
2019-01-30T05:08:07.569Z,20.60
2019-01-30T05:09:07.557Z,18.20
2019-01-30T05:10:07.509Z,21.30
2019-01-30T05:11:07.509Z,20.60
2019-01-30T05:12:07.516Z,19.70
2019-01-30T05:13:07.492Z,21.80
2019-01-30T05:14:07.514Z,18.80
2019-01-30T05:15:07.481Z,20.90
2019-01-30T05:16:07.541Z,17.70
2019-01-30T05:17:07.455Z,17.90
2019-01-30T05:18:07.444Z,18.20
2019-01-30T05:19:07.427Z,21.70
2019-01-30T05:20:09.588Z,20.10
2019-01-30T05:21:07.434Z,19.00
2019-01-30T05:22:07.396Z,21.80
2019-01-30T05:23:07.382Z,18.10
2019-01-30T05:24:07.369Z,17.40
2019-01-30T05:25:07.389Z,20.80
2019-01-30T05:26:07.366Z,22.00
2019-01-30T05:27:07.347Z,19.50
2019-01-30T05:28:07.323Z,19.80
2019-01-30T05:29:07.312Z,21.10
2019-01-30T05:30:07.330Z,18.90
2019-01-30T05:31:07.300Z,18.60
2019-01-30T05:32:07.302Z,20.10
2019-01-30T05:33:07.287Z,16.50
2019-01-30T05:34:07.261Z,18.60
2019-01-30T05:35:07.320Z,18.90
2019-01-30T05:36:07.246Z,18.40
2019-01-30T05:37:07.243Z,18.50
2019-01-30T05:38:07.266Z,18.30
2019-01-30T05:39:07.228Z,20.10
2019-01-30T05:40:07.252Z,19.30
2019-01-30T05:41:07.218Z,21.10
2019-01-30T05:42:07.185Z,19.60
2019-01-30T05:43:07.183Z,20.90
2019-01-30T05:44:07.209Z,20.40
2019-01-30T05:45:07.214Z,19.10
2019-01-30T05:46:07.204Z,18.50
2019-01-30T05:47:07.200Z,17.00
2019-01-30T05:48:07.177Z,19.20
2019-01-30T05:49:07.130Z,19.90
2019-01-30T05:50:07.135Z,18.10
2019-01-30T05:51:07.100Z,23.40
2019-01-30T05:52:07.109Z,21.90
2019-01-30T05:53:07.079Z,21.20
2019-01-30T05:54:07.081Z,17.80
2019-01-30T05:55:07.093Z,19.40
2019-01-30T05:56:07.094Z,18.90
2019-01-30T05:57:07.045Z,19.00
2019-01-30T05:58:07.095Z,19.00
2019-01-30T05:59:07.019Z,17.80
2019-01-30T06:00:07.007Z,20.90
2019-01-30T06:01:07.007Z,17.80
2019-01-30T06:02:12.119Z,20.20
2019-01-30T06:03:07.967Z,19.50
2019-01-30T06:04:06.959Z,18.80
2019-01-30T06:05:06.951Z,18.40
2019-01-30T06:06:06.973Z,20.40
2019-01-30T06:07:06.945Z,21.40
2019-01-30T06:08:06.958Z,19.10
2019-01-30T06:09:06.951Z,19.70
2019-01-30T06:10:06.931Z,19.00
2019-01-30T06:11:06.934Z,20.20
2019-01-30T06:12:06.873Z,17.90
2019-01-30T06:13:06.877Z,20.60
2019-01-30T06:14:06.880Z,19.40
2019-01-30T06:15:06.851Z,20.60
2019-01-30T06:16:07.021Z,19.60
2019-01-30T06:17:06.836Z,18.30
2019-01-30T06:18:06.825Z,20.30
2019-01-30T06:19:06.815Z,20.80
2019-01-30T06:20:06.804Z,22.50
2019-01-30T06:21:06.845Z,20.60
2019-01-30T06:22:06.783Z,18.70
2019-01-30T06:23:06.772Z,19.50
2019-01-30T06:24:06.758Z,20.00
2019-01-30T06:25:06.739Z,20.10
2019-01-30T06:26:06.830Z,21.10
2019-01-30T06:27:06.761Z,18.10
2019-01-30T06:28:06.738Z,17.90
2019-01-30T06:29:06.707Z,20.20
2019-01-30T06:30:06.728Z,18.20
2019-01-30T06:31:06.681Z,20.60
2019-01-30T06:32:06.711Z,17.90
2019-01-30T06:34:07.721Z,15.90
2019-01-30T06:35:06.649Z,19.40
2019-01-30T06:36:06.643Z,17.20
2019-01-30T06:37:06.657Z,17.90
2019-01-30T06:38:06.617Z,17.20
2019-01-30T06:39:06.614Z,17.40
2019-01-30T06:40:06.591Z,20.20
2019-01-30T06:41:06.581Z,21.30
2019-01-30T06:42:06.587Z,19.50
2019-01-30T06:43:06.552Z,18.60
2019-01-30T06:44:06.557Z,20.10
2019-01-30T06:45:06.546Z,20.50
2019-01-30T06:46:06.556Z,18.70
2019-01-30T06:47:06.536Z,20.80
2019-01-30T06:48:06.549Z,19.50
2019-01-30T06:49:06.489Z,19.40
2019-01-30T06:50:06.489Z,21.10
2019-01-30T06:52:07.537Z,22.20
2019-01-30T06:53:06.453Z,22.60
2019-01-30T06:54:06.452Z,18.80
2019-01-30T06:55:06.483Z,19.30
2019-01-30T06:56:06.421Z,17.70
2019-01-30T06:57:06.429Z,18.60
2019-01-30T06:58:06.389Z,20.20
2019-01-30T06:59:06.411Z,18.70
2019-01-30T07:00:06.369Z,19.10
2019-01-30T07:01:06.354Z,17.90
2019-01-30T07:02:06.373Z,19.50
2019-01-30T07:03:06.337Z,18.30
2019-01-30T07:04:06.338Z,19.40
2019-01-30T07:05:06.327Z,19.90
2019-01-30T07:06:07.848Z,18.90
2019-01-30T07:07:06.339Z,22.20
2019-01-30T07:08:06.305Z,17.90
2019-01-30T07:09:06.273Z,17.70
2019-01-30T07:10:06.262Z,21.50
2019-01-30T07:11:10.794Z,21.20
2019-01-30T07:12:06.291Z,21.80
2019-01-30T07:13:06.245Z,21.20
2019-01-30T07:14:06.248Z,18.60
2019-01-30T07:15:06.223Z,15.80
2019-01-30T07:16:06.218Z,17.60
2019-01-30T07:17:06.239Z,17.90
2019-01-30T07:18:06.214Z,14.80
2019-01-30T07:19:06.179Z,17.20
2019-01-30T07:20:06.185Z,19.00
2019-01-30T07:21:06.157Z,18.40
2019-01-30T07:22:06.157Z,19.40
2019-01-30T07:23:06.172Z,16.00
2019-01-30T07:24:06.125Z,18.50
2019-01-30T07:25:06.123Z,19.10
2019-01-30T07:26:06.114Z,17.70
2019-01-30T07:27:06.089Z,16.30
2019-01-30T07:28:06.098Z,16.30
2019-01-30T07:29:06.085Z,15.60
2019-01-30T07:30:06.086Z,16.90
2019-01-30T07:31:06.055Z,16.80
2019-01-30T07:32:06.053Z,16.90
2019-01-30T07:33:06.124Z,17.10
2019-01-30T07:34:06.029Z,16.60
2019-01-30T07:35:06.040Z,16.90
2019-01-30T07:36:06.013Z,19.00
2019-01-30T07:37:05.987Z,17.20
2019-01-30T07:38:06.001Z,17.50
2019-01-30T07:39:05.989Z,16.70
2019-01-30T07:40:05.990Z,16.40
2019-01-30T07:41:05.949Z,14.90
2019-01-30T07:42:05.933Z,15.80
2019-01-30T07:43:05.985Z,21.40
2019-01-30T07:44:05.949Z,17.60
2019-01-30T07:45:05.920Z,18.30
2019-01-30T07:46:05.927Z,21.40
2019-01-30T07:47:05.882Z,20.10
2019-01-30T07:48:05.892Z,16.30
2019-01-30T07:49:05.876Z,17.80
2019-01-30T07:50:05.867Z,20.80
2019-01-30T07:51:05.854Z,17.60
2019-01-30T07:52:05.861Z,18.70
2019-01-30T07:53:05.897Z,21.60
2019-01-30T07:54:05.818Z,23.10
2019-01-30T07:55:05.807Z,22.10
2019-01-30T07:56:05.807Z,18.90
2019-01-30T07:57:05.795Z,18.90
2019-01-30T07:58:06.047Z,20.40
2019-01-30T07:59:05.765Z,21.00
2019-01-30T08:00:05.747Z,20.30
2019-01-30T08:01:05.747Z,18.40
2019-01-30T08:02:06.465Z,18.90
2019-01-30T08:03:05.758Z,21.70
2019-01-30T08:04:05.730Z,19.70
2019-01-30T08:05:05.808Z,21.70
2019-01-30T08:06:05.727Z,19.60
2019-01-30T08:07:05.693Z,25.10
2019-01-30T08:08:05.665Z,20.60
2019-01-30T08:09:05.673Z,22.20
2019-01-30T08:10:05.703Z,20.50
2019-01-30T08:11:07.338Z,23.80
2019-01-30T08:12:05.642Z,20.40
2019-01-30T08:13:05.623Z,21.50
2019-01-30T08:14:05.765Z,22.50
2019-01-30T08:15:05.617Z,22.60
2019-01-30T08:16:05.582Z,22.80
2019-01-30T08:17:05.648Z,23.30
2019-01-30T08:18:05.556Z,23.70
2019-01-30T08:19:05.571Z,23.40
2019-01-30T08:20:05.545Z,24.40
2019-01-30T08:21:05.545Z,19.70
2019-01-30T08:22:05.561Z,22.00
2019-01-30T08:23:05.808Z,19.40
2019-01-30T08:24:05.612Z,22.90
2019-01-30T08:25:05.736Z,22.20
2019-01-30T08:26:05.623Z,22.60
2019-01-30T08:27:05.795Z,22.40
2019-01-30T08:28:05.824Z,23.80
2019-01-30T08:29:05.931Z,22.00
2019-01-30T08:30:05.758Z,22.60
2019-01-30T08:32:06.990Z,21.60
2019-01-30T08:33:26.455Z,24.10
2019-01-30T08:34:05.540Z,20.60
2019-01-30T08:35:05.400Z,21.90
2019-01-30T08:36:05.449Z,22.00
2019-01-30T08:37:05.365Z,22.30
2019-01-30T08:39:06.435Z,23.40
2019-01-30T08:40:05.471Z,23.50
2019-01-30T08:41:05.399Z,20.50
2019-01-30T08:42:05.399Z,25.40
2019-01-30T08:43:05.373Z,24.00
2019-01-30T08:44:05.420Z,21.70
2019-01-30T08:45:05.312Z,22.50
2019-01-30T08:46:05.377Z,21.00
2019-01-30T08:47:05.265Z,23.30
2019-01-30T08:48:05.257Z,25.00
2019-01-30T08:49:05.247Z,24.10
2019-01-30T08:50:05.257Z,24.20
2019-01-30T08:51:05.220Z,22.40
2019-01-30T08:52:05.212Z,25.50
2019-01-30T08:53:05.209Z,24.70
2019-01-30T08:54:05.198Z,21.90
2019-01-30T08:55:05.209Z,22.80
2019-01-30T08:56:05.173Z,21.20
2019-01-30T08:57:05.155Z,21.30
2019-01-30T08:58:05.168Z,21.10
2019-01-30T08:59:05.904Z,22.80
2019-01-30T09:00:05.151Z,22.80
2019-01-30T09:01:05.134Z,20.00
2019-01-30T09:02:05.114Z,23.70
2019-01-30T09:03:14.569Z,24.80
2019-01-30T09:04:06.082Z,21.90
2019-01-30T09:05:05.124Z,24.30
2019-01-30T09:06:05.065Z,19.70
2019-01-30T09:07:05.069Z,18.80
2019-01-30T09:08:05.050Z,23.90
2019-01-30T09:09:05.030Z,21.20
2019-01-30T09:10:05.038Z,20.40
2019-01-30T09:11:05.040Z,22.60
2019-01-30T09:12:05.028Z,21.10
2019-01-30T09:13:04.994Z,21.70
2019-01-30T09:14:04.980Z,21.30
2019-01-30T09:15:04.967Z,19.40
2019-01-30T09:16:04.980Z,19.00
2019-01-30T09:17:08.329Z,21.50
2019-01-30T09:18:04.937Z,17.80
2019-01-30T09:19:04.934Z,18.00
2019-01-30T09:20:04.926Z,17.90
2019-01-30T09:21:05.082Z,18.30
2019-01-30T09:22:04.890Z,18.30
2019-01-30T09:23:04.880Z,18.20
2019-01-30T09:24:04.890Z,17.90
2019-01-30T09:25:04.869Z,21.10
2019-01-30T09:26:04.879Z,20.20
2019-01-30T09:27:04.878Z,18.40
2019-01-30T09:28:04.852Z,19.40
2019-01-30T09:29:04.819Z,16.60
2019-01-30T09:30:04.820Z,17.90
2019-01-30T09:31:04.851Z,19.10
2019-01-30T09:32:04.788Z,19.80
2019-01-30T09:33:04.779Z,20.30
2019-01-30T09:34:04.771Z,18.70
2019-01-30T09:35:04.760Z,17.30
2019-01-30T09:36:04.792Z,19.50
2019-01-30T09:37:04.783Z,20.60
2019-01-30T09:38:04.733Z,17.50
2019-01-30T09:39:04.719Z,21.20
2019-01-30T09:40:04.756Z,21.00
2019-01-30T09:41:04.714Z,18.70
2019-01-30T09:42:04.704Z,17.40
2019-01-30T09:43:04.683Z,19.10
2019-01-30T09:44:04.661Z,17.50
2019-01-30T09:45:04.662Z,18.30
2019-01-30T09:46:04.670Z,17.30
2019-01-30T09:47:04.748Z,17.40
2019-01-30T09:48:04.670Z,19.60
2019-01-30T09:49:04.640Z,18.10
2019-01-30T09:50:04.608Z,19.90
2019-01-30T09:51:04.605Z,18.90
2019-01-30T09:52:04.623Z,20.40
2019-01-30T09:53:04.577Z,18.90
2019-01-30T09:54:04.601Z,20.10
2019-01-30T09:55:04.546Z,19.90
2019-01-30T09:56:04.554Z,20.90
2019-01-30T09:57:04.551Z,18.10
2019-01-30T09:58:04.523Z,19.60
2019-01-30T09:59:04.542Z,24.70
2019-01-30T10:00:04.502Z,22.30
2019-01-30T10:01:04.480Z,19.70
2019-01-30T10:02:04.490Z,20.10
2019-01-30T10:03:04.494Z,23.10
2019-01-30T10:04:04.452Z,22.20
2019-01-30T10:05:04.480Z,19.40
2019-01-30T10:06:04.423Z,19.80
2019-01-30T10:07:04.467Z,19.60
2019-01-30T10:08:04.502Z,19.20
2019-01-30T10:09:04.402Z,21.90
2019-01-30T10:10:04.403Z,21.60
2019-01-30T10:11:04.405Z,23.40
2019-01-30T10:12:04.361Z,18.40
2019-01-30T10:13:04.397Z,18.90
2019-01-30T10:14:04.354Z,20.20
2019-01-30T10:15:04.346Z,20.30
2019-01-30T10:16:04.359Z,19.10
2019-01-30T10:17:04.354Z,22.00
2019-01-30T10:18:04.342Z,21.10
2019-01-30T10:19:04.294Z,17.10
2019-01-30T10:20:04.275Z,20.60
2019-01-30T10:21:04.285Z,17.00
2019-01-30T10:22:04.899Z,18.40
2019-01-30T10:23:04.288Z,16.00
2019-01-30T10:24:04.238Z,19.20
2019-01-30T10:25:04.221Z,21.20
2019-01-30T10:26:04.218Z,19.40
2019-01-30T10:27:04.217Z,18.30
2019-01-30T10:28:04.246Z,17.90
2019-01-30T10:29:04.213Z,19.20
2019-01-30T10:30:04.234Z,15.70
2019-01-30T10:31:04.214Z,18.40
2019-01-30T10:32:04.495Z,17.50
2019-01-30T10:33:04.168Z,18.20
2019-01-30T10:34:04.160Z,18.30
2019-01-30T10:35:04.178Z,19.50
2019-01-30T10:36:04.134Z,18.40
2019-01-30T10:37:04.128Z,16.70
2019-01-30T10:38:04.121Z,20.10
2019-01-30T10:39:04.093Z,17.00
2019-01-30T10:40:04.096Z,16.80
2019-01-30T10:41:04.081Z,18.80
2019-01-30T10:42:04.102Z,16.50
2019-01-30T10:43:04.042Z,17.20
2019-01-30T10:44:04.058Z,16.70
2019-01-30T10:45:04.038Z,16.60
2019-01-30T10:46:04.032Z,19.90
2019-01-30T10:47:04.000Z,17.10
2019-01-30T10:48:03.987Z,16.70
2019-01-30T10:49:04.028Z,13.00
2019-01-30T10:50:03.999Z,16.50
2019-01-30T10:51:03.986Z,16.80
2019-01-30T10:52:03.978Z,18.70
2019-01-30T10:53:03.930Z,19.90
2019-01-30T10:54:03.943Z,11.70
2019-01-30T10:55:03.924Z,15.80
2019-01-30T10:56:03.914Z,18.40
2019-01-30T10:57:03.912Z,16.00
2019-01-30T10:58:03.892Z,18.60
2019-01-30T10:59:03.920Z,15.20
2019-01-30T11:00:03.860Z,13.20
2019-01-30T11:01:03.856Z,17.60
2019-01-30T11:02:03.854Z,21.20
2019-01-30T11:03:03.841Z,18.60
2019-01-30T11:04:03.884Z,19.10
2019-01-30T11:05:03.893Z,17.00
2019-01-30T11:06:03.804Z,18.30
2019-01-30T11:07:03.800Z,21.40
2019-01-30T11:08:03.801Z,17.50
2019-01-30T11:09:03.805Z,19.30
2019-01-30T11:10:03.780Z,18.00
2019-01-30T11:11:07.850Z,19.00
2019-01-30T11:12:03.729Z,15.90
2019-01-30T11:13:03.740Z,17.00
2019-01-30T11:14:03.712Z,17.00
2019-01-30T11:15:03.719Z,15.90
2019-01-30T11:16:03.704Z,15.30
2019-01-30T11:17:03.693Z,16.00
2019-01-30T11:18:03.679Z,15.10
2019-01-30T11:19:03.674Z,15.50
2019-01-30T11:20:03.684Z,19.50
2019-01-30T11:21:05.965Z,16.10
2019-01-30T11:22:03.646Z,14.90
2019-01-30T11:23:03.630Z,20.40
2019-01-30T11:24:03.610Z,14.80
2019-01-30T11:25:05.608Z,17.10
2019-01-30T11:26:03.584Z,16.40
2019-01-30T11:27:03.596Z,15.20
2019-01-30T11:28:03.603Z,16.50
2019-01-30T11:29:03.552Z,16.30
2019-01-30T11:30:03.614Z,14.00
2019-01-30T11:31:03.552Z,16.30
2019-01-30T11:32:03.533Z,13.90
2019-01-30T11:33:03.582Z,20.10
2019-01-30T11:34:07.438Z,17.00
2019-01-30T11:35:03.504Z,13.90
2019-01-30T11:36:03.496Z,13.10
2019-01-30T11:37:03.475Z,13.20
2019-01-30T11:38:03.479Z,13.60
2019-01-30T11:39:03.481Z,11.60
2019-01-30T11:40:03.452Z,13.90
2019-01-30T11:41:03.448Z,14.20
2019-01-30T11:42:03.429Z,15.70
2019-01-30T11:43:03.422Z,12.40
2019-01-30T11:44:03.410Z,15.60
2019-01-30T11:45:03.432Z,11.30
2019-01-30T11:46:03.442Z,14.50
2019-01-30T11:47:03.380Z,14.90
2019-01-30T11:48:03.360Z,13.10
2019-01-30T11:49:03.352Z,16.70
2019-01-30T11:50:03.360Z,15.20
2019-01-30T11:51:03.353Z,13.00
2019-01-30T11:52:03.315Z,12.50
2019-01-30T11:53:03.298Z,13.20
2019-01-30T11:54:03.332Z,13.30
2019-01-30T11:55:03.291Z,15.50
2019-01-30T11:56:03.418Z,13.10
2019-01-30T11:57:03.297Z,12.80
2019-01-30T11:58:03.254Z,11.60
2019-01-30T11:59:03.236Z,11.70
2019-01-30T12:00:03.239Z,14.60
2019-01-30T12:01:03.649Z,13.10
2019-01-30T12:02:03.239Z,14.50
2019-01-30T12:03:03.238Z,13.70
2019-01-30T12:04:03.202Z,15.00
2019-01-30T12:05:03.251Z,14.90
2019-01-30T12:06:03.171Z,16.30
2019-01-30T12:07:03.190Z,15.70
2019-01-30T12:08:03.173Z,14.60
2019-01-30T12:09:03.128Z,18.50
2019-01-30T12:10:03.128Z,15.20
2019-01-30T12:11:03.109Z,15.70
2019-01-30T12:12:03.124Z,14.70
2019-01-30T12:13:03.216Z,18.30
2019-01-30T12:14:03.143Z,12.60
2019-01-30T12:15:03.064Z,17.70
2019-01-30T12:16:03.057Z,16.70
2019-01-30T12:17:03.046Z,17.00
2019-01-30T12:18:03.077Z,15.10
2019-01-30T12:19:03.050Z,14.90
2019-01-30T12:20:03.021Z,12.20
2019-01-30T12:21:03.010Z,15.70
2019-01-30T12:22:03.001Z,15.00
2019-01-30T12:23:03.010Z,15.90
2019-01-30T12:24:03.012Z,18.20
2019-01-30T12:25:02.976Z,14.60
2019-01-30T12:26:02.996Z,15.30
2019-01-30T12:27:02.937Z,14.70
2019-01-30T12:28:02.946Z,17.50
2019-01-30T12:29:02.917Z,15.70
2019-01-30T12:30:02.923Z,15.00
2019-01-30T12:31:02.993Z,17.30
2019-01-30T12:32:02.884Z,16.00
2019-01-30T12:33:02.906Z,14.50
2019-01-30T12:34:02.865Z,14.70
2019-01-30T12:35:02.860Z,17.40
2019-01-30T12:36:02.848Z,18.00
2019-01-30T12:37:02.833Z,18.70
2019-01-30T12:38:02.862Z,17.60
2019-01-30T12:39:02.810Z,15.90
2019-01-30T12:40:02.822Z,17.60
2019-01-30T12:41:02.795Z,17.30
2019-01-30T12:42:02.786Z,15.40
2019-01-30T12:43:02.780Z,17.70
2019-01-30T12:44:02.810Z,16.30
2019-01-30T12:45:02.753Z,14.50
2019-01-30T12:46:02.726Z,18.20
2019-01-30T12:47:02.724Z,18.50
2019-01-30T12:48:02.725Z,17.30
2019-01-30T12:49:02.742Z,16.30
2019-01-30T12:50:02.681Z,18.80
2019-01-30T12:51:02.747Z,18.70
2019-01-30T12:52:02.680Z,13.90
2019-01-30T12:53:02.675Z,17.30
2019-01-30T12:54:02.681Z,17.20
2019-01-30T12:55:02.648Z,16.70
2019-01-30T12:56:02.632Z,16.90
2019-01-30T12:57:02.637Z,16.60
2019-01-30T12:58:02.608Z,15.90
2019-01-30T12:59:02.680Z,16.10
2019-01-30T13:00:02.619Z,20.50
2019-01-30T13:01:02.631Z,19.00
2019-01-30T13:02:02.599Z,17.00
2019-01-30T13:03:02.554Z,15.60